Terminal Aerodrome Forecast
Issued by NWS

Home | Current Version | Previous Version | Text Only | Print | Product List | Glossary Off
Versions: 1 2 3 4 5 6 7 8 9 10 11 12 13 14 15 16 17 18 19 20 21 22 23

675
FTUS43 KLSX 300819 AAA
TAFCPS
TAF AMD
KCPS 300819Z 3008/3106 15011KT P6SM VCSH SCT025 OVC060
     FM301400 17007KT P6SM VCTS BKN045CB
     FM301800 21013KT P6SM SHRA VCTS SCT025CB BKN060
     FM310200 24008KT P6SM BKN040=

USA.gov is the U.S. government's official web portal to all federal, state and local government web resources and services.